OOCL Hamburg — VRZK9 — position and weather

sailwx.info

Track history (hours):
 
Tides and Currents Weather Stations Pressure Air Temp Water Temp Dewpoint Dewpoint Depression Visibility Wind Speed Wind Dir Waves Ship Positions

OOCL Hamburg

Last reported at 2014-Sep-29 15:28 UTC. Time now 2014-Sep-30 10:14 UTC.
Position N 01°20' E 103°18'.

Length 323 m; beam 42.8 m; draft 14.5 m.

Type: Cargo ship. MMSI: 477702000.

Date/timePositionNaut miles runAvg speedWind from/ knotsBaromVisibWave heightAir tempDewpointWater temp
2014-Sep-29 15:28N 01°20' E 103°18'1820.2
2014-Sep-29 14:33N 01°12' E 103°34'1817.8
2014-Sep-29 13:33N 01°12' E 103°52'4 3.8
2014-Sep-29 12:34N 01°16' E 103°50'0 0.0
2014-Sep-29 11:33N 01°16' E 103°50'0 0.0
2014-Sep-29 10:33N 01°16' E 103°50'0 0.0
2014-Sep-29 09:33N 01°16' E 103°50'0 0.0
2014-Sep-29 08:33N 01°16' E 103°50'0 0.0
2014-Sep-29 07:33N 01°16' E 103°50'0 0.0
2014-Sep-29 06:33N 01°16' E 103°50'0 0.0
2014-Sep-29 05:33N 01°16' E 103°50'0 0.0
2014-Sep-29 04:24N 01°16' E 103°50'0 0.0
2014-Sep-29 03:30N 01°16' E 103°50'0 0.0
2014-Sep-29 02:30N 01°16' E 103°50'0 0.0
2014-Sep-29 01:30N 01°16' E 103°50'0 0.0
2014-Sep-29 00:30N 01°16' E 103°50'0 0.0
2014-Sep-28 23:30N 01°16' E 103°50'0 0.0
2014-Sep-28 22:30N 01°16' E 103°50'0 0.0
2014-Sep-28 21:33N 01°16' E 103°50'0 0.0
2014-Sep-28 20:30N 01°16' E 103°50'0 0.0
2014-Sep-28 19:33N 01°16' E 103°50'0 0.1
2014-Sep-28 18:30N 01°16' E 103°50'0 0.1
2014-Sep-28 17:33N 01°16' E 103°50'0 0.0
2014-Sep-28 16:33N 01°16' E 103°50'0 0.0
2014-Sep-28 15:33N 01°16' E 103°50'0 0.0
2014-Sep-28 14:30N 01°16' E 103°50'0 0.0
2014-Sep-28 13:33N 01°16' E 103°50'0 0.0
2014-Sep-28 12:33N 01°16' E 103°50'0 0.0
2014-Sep-28 11:33N 01°16' E 103°50'0 0.0
2014-Sep-28 10:24N 01°16' E 103°50'0 0.0
2014-Sep-28 09:33N 01°16' E 103°50'0 0.0
2014-Sep-28 08:33N 01°16' E 103°50'0 0.0
2014-Sep-28 07:33N 01°16' E 103°50'0 0.0
2014-Sep-28 06:30N 01°16' E 103°50'0 0.0
2014-Sep-28 05:33N 01°16' E 103°50'0 0.0
2014-Sep-28 04:25N 01°16' E 103°50'1 1.1
2014-Sep-28 03:33N 01°15' E 103°51'5 5.4
2014-Sep-28 02:33N 01°15' E 103°57'1414.1
2014-Sep-28 01:33N 01°17' E 104°10'  
2014-Sep-24 09:30N 22°34' E 114°16'0 0.0
2014-Sep-24 08:30N 22°34' E 114°16'0 0.0
2014-Sep-24 07:30N 22°34' E 114°16'0 0.0
2014-Sep-24 06:30N 22°34' E 114°16'0 0.0
2014-Sep-24 05:30N 22°34' E 114°16'0 0.0
2014-Sep-24 04:24N 22°34' E 114°16'0 0.0
2014-Sep-24 03:12N 22°34' E 114°16'0 0.0
2014-Sep-24 01:12N 22°34' E 114°16'0 0.0
2014-Sep-24 00:24N 22°34' E 114°16'1 0.3
2014-Sep-23 21:29N 22°34' E 114°17'20 2.2
2014-Sep-23 12:16N 22°16' E 114°07'4 0.3
2014-Sep-22 23:18N 22°20' E 114°07'11 2.7
2014-Sep-22 19:21N 22°10' E 114°09'0 0.0
2014-Sep-22 17:21N 22°10' E 114°09'0 0.0
2014-Sep-22 16:33N 22°10' E 114°09'0 0.1
2014-Sep-22 13:15N 22°10' E 114°09'0 0.0
2014-Sep-22 11:21N 22°10' E 114°09'0 0.0
2014-Sep-22 10:27N 22°10' E 114°09'0 0.0
2014-Sep-22 07:03N 22°10' E 114°09'0 0.0
2014-Sep-21 20:33N 22°10' E 114°09'0 0.0
2014-Sep-21 04:09N 22°10' E 114°09'0 0.0
2014-Sep-21 02:33N 22°10' E 114°09'0 0.0
2014-Sep-20 21:08N 22°10' E 114°09'3 4.2
2014-Sep-20 20:33N 22°12' E 114°11'1210.9
2014-Sep-20 19:25N 22°21' E 114°03'910.8
2014-Sep-20 18:33N 22°24' E 113°53'3 2.8
2014-Sep-20 17:32N 22°27' E 113°53'0 0.0
2014-Sep-20 16:32N 22°27' E 113°53'0 0.0
2014-Sep-20 15:32N 22°27' E 113°53'0 0.0
2014-Sep-20 14:32N 22°27' E 113°53'0 0.0
2014-Sep-20 13:32N 22°27' E 113°53'0 0.0
2014-Sep-20 12:29N 22°27' E 113°53'0 0.0
2014-Sep-20 11:32N 22°27' E 113°53'0 0.0
2014-Sep-20 10:32N 22°27' E 113°53'0 0.0
2014-Sep-20 09:29N 22°27' E 113°53'0 0.0
2014-Sep-20 08:32N 22°27' E 113°53'0 0.0
2014-Sep-20 07:29N 22°27' E 113°53'0 0.0
2014-Sep-20 06:32N 22°27' E 113°53'1 1.4
2014-Sep-20 05:33N 22°25' E 113°53'14 7.0
2014-Sep-20 03:33N 22°18' E 114°06'22 7.1
2014-Sep-20 00:31N 22°09' E 114°27'  
Track history (hours):
 
Tides and Currents Weather Stations Pressure Air Temp Water Temp Dewpoint Dewpoint Depression Visibility Wind Speed Wind Dir Waves Ship Positions

OOCL Hamburg

Last reported at 2014-Sep-29 15:28 UTC. Time now 2014-Sep-30 10:14 UTC.
Position N 01°20' E 103°18'.

Length 323 m; beam 42.8 m; draft 14.5 m.

Type: Cargo ship. MMSI: 477702000.

Date/timePositionNaut miles runAvg speedWind from/ knotsBaromVisibWave heightAir tempDewpointWater temp
2014-Sep-29 15:28N 01°20' E 103°18'1820.2
2014-Sep-29 14:33N 01°12' E 103°34'1817.8
2014-Sep-29 13:33N 01°12' E 103°52'4 3.8
2014-Sep-29 12:34N 01°16' E 103°50'0 0.0
2014-Sep-29 11:33N 01°16' E 103°50'0 0.0
2014-Sep-29 10:33N 01°16' E 103°50'0 0.0
2014-Sep-29 09:33N 01°16' E 103°50'0 0.0
2014-Sep-29 08:33N 01°16' E 103°50'0 0.0
2014-Sep-29 07:33N 01°16' E 103°50'0 0.0
2014-Sep-29 06:33N 01°16' E 103°50'0 0.0
2014-Sep-29 05:33N 01°16' E 103°50'0 0.0
2014-Sep-29 04:24N 01°16' E 103°50'0 0.0
2014-Sep-29 03:30N 01°16' E 103°50'0 0.0
2014-Sep-29 02:30N 01°16' E 103°50'0 0.0
2014-Sep-29 01:30N 01°16' E 103°50'0 0.0
2014-Sep-29 00:30N 01°16' E 103°50'0 0.0
2014-Sep-28 23:30N 01°16' E 103°50'0 0.0
2014-Sep-28 22:30N 01°16' E 103°50'0 0.0
2014-Sep-28 21:33N 01°16' E 103°50'0 0.0
2014-Sep-28 20:30N 01°16' E 103°50'0 0.0
2014-Sep-28 19:33N 01°16' E 103°50'0 0.1
2014-Sep-28 18:30N 01°16' E 103°50'0 0.1
2014-Sep-28 17:33N 01°16' E 103°50'0 0.0
2014-Sep-28 16:33N 01°16' E 103°50'0 0.0
2014-Sep-28 15:33N 01°16' E 103°50'0 0.0
2014-Sep-28 14:30N 01°16' E 103°50'0 0.0
2014-Sep-28 13:33N 01°16' E 103°50'0 0.0
2014-Sep-28 12:33N 01°16' E 103°50'0 0.0
2014-Sep-28 11:33N 01°16' E 103°50'0 0.0
2014-Sep-28 10:24N 01°16' E 103°50'0 0.0
2014-Sep-28 09:33N 01°16' E 103°50'0 0.0
2014-Sep-28 08:33N 01°16' E 103°50'0 0.0
2014-Sep-28 07:33N 01°16' E 103°50'0 0.0
2014-Sep-28 06:30N 01°16' E 103°50'0 0.0
2014-Sep-28 05:33N 01°16' E 103°50'0 0.0
2014-Sep-28 04:25N 01°16' E 103°50'1 1.1
2014-Sep-28 03:33N 01°15' E 103°51'5 5.4
2014-Sep-28 02:33N 01°15' E 103°57'1414.1
2014-Sep-28 01:33N 01°17' E 104°10'  
2014-Sep-24 09:30N 22°34' E 114°16'0 0.0
2014-Sep-24 08:30N 22°34' E 114°16'0 0.0
2014-Sep-24 07:30N 22°34' E 114°16'0 0.0
2014-Sep-24 06:30N 22°34' E 114°16'0 0.0
2014-Sep-24 05:30N 22°34' E 114°16'0 0.0
2014-Sep-24 04:24N 22°34' E 114°16'0 0.0
2014-Sep-24 03:12N 22°34' E 114°16'0 0.0
2014-Sep-24 01:12N 22°34' E 114°16'0 0.0
2014-Sep-24 00:24N 22°34' E 114°16'1 0.3
2014-Sep-23 21:29N 22°34' E 114°17'20 2.2
2014-Sep-23 12:16N 22°16' E 114°07'4 0.3
2014-Sep-22 23:18N 22°20' E 114°07'11 2.7
2014-Sep-22 19:21N 22°10' E 114°09'0 0.0
2014-Sep-22 17:21N 22°10' E 114°09'0 0.0
2014-Sep-22 16:33N 22°10' E 114°09'0 0.1
2014-Sep-22 13:15N 22°10' E 114°09'0 0.0
2014-Sep-22 11:21N 22°10' E 114°09'0 0.0
2014-Sep-22 10:27N 22°10' E 114°09'0 0.0
2014-Sep-22 07:03N 22°10' E 114°09'0 0.0
2014-Sep-21 20:33N 22°10' E 114°09'0 0.0
2014-Sep-21 04:09N 22°10' E 114°09'0 0.0
2014-Sep-21 02:33N 22°10' E 114°09'0 0.0
2014-Sep-20 21:08N 22°10' E 114°09'3 4.2
2014-Sep-20 20:33N 22°12' E 114°11'1210.9
2014-Sep-20 19:25N 22°21' E 114°03'910.8
2014-Sep-20 18:33N 22°24' E 113°53'3 2.8
2014-Sep-20 17:32N 22°27' E 113°53'0 0.0
2014-Sep-20 16:32N 22°27' E 113°53'0 0.0
2014-Sep-20 15:32N 22°27' E 113°53'0 0.0
2014-Sep-20 14:32N 22°27' E 113°53'0 0.0
2014-Sep-20 13:32N 22°27' E 113°53'0 0.0
2014-Sep-20 12:29N 22°27' E 113°53'0 0.0
2014-Sep-20 11:32N 22°27' E 113°53'0 0.0
2014-Sep-20 10:32N 22°27' E 113°53'0 0.0
2014-Sep-20 09:29N 22°27' E 113°53'0 0.0
2014-Sep-20 08:32N 22°27' E 113°53'0 0.0
2014-Sep-20 07:29N 22°27' E 113°53'0 0.0
2014-Sep-20 06:32N 22°27' E 113°53'1 1.4
2014-Sep-20 05:33N 22°25' E 113°53'14 7.0
2014-Sep-20 03:33N 22°18' E 114°06'22 7.1
2014-Sep-20 00:31N 22°09' E 114°27'  

Dump ship's entire track history